sensor_id;sensor_type;location;lat;lon;timestamp;P1;durP1;ratioP1;P2;durP2;ratioP2
26036;SDS011;13810;48.376;10.944;2023-03-31T00:00:06;9.90;;;4.82;;
26036;SDS011;13810;48.376;10.944;2023-03-31T00:00:40;12.32;;;6.07;;
26036;SDS011;13810;48.376;10.944;2023-03-31T00:01:11;9.30;;;5.20;;
26036;SDS011;13810;48.376;10.944;2023-03-31T00:01:42;11.43;;;5.78;;
26036;SDS011;13810;48.376;10.944;2023-03-31T00:02:12;11.18;;;5.88;;
26036;SDS011;13810;48.376;10.944;2023-03-31T00:02:43;13.77;;;6.45;;
26036;SDS011;13810;48.376;10.944;2023-03-31T00:03:15;19.88;;;5.75;;
26036;SDS011;13810;48.376;10.944;2023-03-31T00:03:50;10.85;;;5.90;;
26036;SDS011;13810;48.376;10.944;2023-03-31T00:04:21;12.32;;;6.20;;
26036;SDS011;13810;48.376;10.944;2023-03-31T00:04:52;12.32;;;6.45;;
26036;SDS011;13810;48.376;10.944;2023-03-31T00:05:24;9.63;;;5.97;;
26036;SDS011;13810;48.376;10.944;2023-03-31T00:05:56;16.73;;;5.90;;
26036;SDS011;13810;48.376;10.944;2023-03-31T00:06:28;11.77;;;6.65;;
26036;SDS011;13810;48.376;10.944;2023-03-31T00:06:59;8.93;;;5.75;;
26036;SDS011;13810;48.376;10.944;2023-03-31T00:07:30;11.65;;;5.63;;
26036;SDS011;13810;48.376;10.944;2023-03-31T00:08:01;11.02;;;6.00;;
26036;SDS011;13810;48.376;10.944;2023-03-31T00:08:32;12.15;;;6.20;;
26036;SDS011;13810;48.376;10.944;2023-03-31T00:09:07;10.52;;;6.28;;
26036;SDS011;13810;48.376;10.944;2023-03-31T00:09:40;12.15;;;6.10;;
26036;SDS011;13810;48.376;10.944;2023-03-31T00:10:15;11.20;;;6.13;;
26036;SDS011;13810;48.376;10.944;2023-03-31T00:10:48;13.23;;;6.63;;
26036;SDS011;13810;48.376;10.944;2023-03-31T00:11:19;12.93;;;6.15;;
26036;SDS011;13810;48.376;10.944;2023-03-31T00:11:51;17.15;;;6.45;;
26036;SDS011;13810;48.376;10.944;2023-03-31T00:12:21;13.30;;;5.75;;
26036;SDS011;13810;48.376;10.944;2023-03-31T00:12:52;9.45;;;6.18;;
26036;SDS011;13810;48.376;10.944;2023-03-31T00:13:23;13.27;;;6.22;;
26036;SDS011;13810;48.376;10.944;2023-03-31T00:13:53;12.93;;;6.75;;
26036;SDS011;13810;48.376;10.944;2023-03-31T00:14:24;14.25;;;6.45;;
26036;SDS011;13810;48.376;10.944;2023-03-31T00:14:55;12.07;;;6.32;;
26036;SDS011;13810;48.376;10.944;2023-03-31T00:15:26;13.45;;;7.30;;
26036;SDS011;13810;48.376;10.944;2023-03-31T00:15:58;10.88;;;6.97;;
26036;SDS011;13810;48.376;10.944;2023-03-31T00:16:34;8.85;;;6.35;;
26036;SDS011;13810;48.376;10.944;2023-03-31T00:17:06;11.68;;;6.57;;
26036;SDS011;13810;48.376;10.944;2023-03-31T00:17:37;14.18;;;7.07;;
26036;SDS011;13810;48.376;10.944;2023-03-31T00:18:08;12.07;;;6.38;;
26036;SDS011;13810;48.376;10.944;2023-03-31T00:18:38;13.82;;;6.68;;
26036;SDS011;13810;48.376;10.944;2023-03-31T00:19:16;14.38;;;7.13;;
26036;SDS011;13810;48.376;10.944;2023-03-31T00:19:49;12.95;;;7.10;;
26036;SDS011;13810;48.376;10.944;2023-03-31T00:20:20;10.27;;;6.50;;
26036;SDS011;13810;48.376;10.944;2023-03-31T00:20:52;13.48;;;7.07;;
26036;SDS011;13810;48.376;10.944;2023-03-31T00:21:23;11.70;;;7.68;;
26036;SDS011;13810;48.376;10.944;2023-03-31T00:21:54;10.82;;;6.60;;
26036;SDS011;13810;48.376;10.944;2023-03-31T00:22:25;14.02;;;6.90;;
26036;SDS011;13810;48.376;10.944;2023-03-31T00:22:59;14.40;;;6.70;;
26036;SDS011;13810;48.376;10.944;2023-03-31T00:23:30;16.17;;;6.65;;
26036;SDS011;13810;48.376;10.944;2023-03-31T00:24:06;11.45;;;6.63;;
26036;SDS011;13810;48.376;10.944;2023-03-31T00:24:38;12.77;;;7.68;;
26036;SDS011;13810;48.376;10.944;2023-03-31T00:25:09;12.15;;;6.72;;
26036;SDS011;13810;48.376;10.944;2023-03-31T00:25:40;11.77;;;6.30;;
26036;SDS011;13810;48.376;10.944;2023-03-31T00:26:10;10.98;;;6.28;;
26036;SDS011;13810;48.376;10.944;2023-03-31T00:26:41;9.63;;;6.30;;
26036;SDS011;13810;48.376;10.944;2023-03-31T00:27:12;9.70;;;5.97;;
26036;SDS011;13810;48.376;10.944;2023-03-31T00:27:43;14.77;;;6.65;;
26036;SDS011;13810;48.376;10.944;2023-03-31T00:28:14;9.75;;;6.40;;
26036;SDS011;13810;48.376;10.944;2023-03-31T00:28:44;7.97;;;5.95;;
26036;SDS011;13810;48.376;10.944;2023-03-31T00:29:15;8.65;;;5.45;;
26036;SDS011;13810;48.376;10.944;2023-03-31T00:29:46;11.65;;;5.88;;
26036;SDS011;13810;48.376;10.944;2023-03-31T00:30:19;15.13;;;5.55;;
26036;SDS011;13810;48.376;10.944;2023-03-31T00:30:50;10.85;;;5.85;;
26036;SDS011;13810;48.376;10.944;2023-03-31T00:31:22;8.52;;;5.15;;
26036;SDS011;13810;48.376;10.944;2023-03-31T00:31:53;12.25;;;5.95;;
26036;SDS011;13810;48.376;10.944;2023-03-31T00:32:24;9.68;;;5.15;;
26036;SDS011;13810;48.376;10.944;2023-03-31T00:32:55;10.20;;;5.50;;
26036;SDS011;13810;48.376;10.944;2023-03-31T00:33:25;15.52;;;5.53;;
26036;SDS011;13810;48.376;10.944;2023-03-31T00:33:56;9.57;;;5.45;;
26036;SDS011;13810;48.376;10.944;2023-03-31T00:34:27;16.58;;;6.60;;
26036;SDS011;13810;48.376;10.944;2023-03-31T00:34:59;11.68;;;6.22;;
26036;SDS011;13810;48.376;10.944;2023-03-31T00:35:31;9.82;;;5.45;;
26036;SDS011;13810;48.376;10.944;2023-03-31T00:36:04;13.27;;;6.68;;
26036;SDS011;13810;48.376;10.944;2023-03-31T00:36:35;18.42;;;6.97;;
26036;SDS011;13810;48.376;10.944;2023-03-31T00:37:16;10.52;;;5.75;;
26036;SDS011;13810;48.376;10.944;2023-03-31T00:37:46;14.00;;;5.60;;
26036;SDS011;13810;48.376;10.944;2023-03-31T00:38:17;10.70;;;6.28;;
26036;SDS011;13810;48.376;10.944;2023-03-31T00:38:50;15.70;;;7.07;;
26036;SDS011;13810;48.376;10.944;2023-03-31T00:39:22;15.95;;;6.75;;
26036;SDS011;13810;48.376;10.944;2023-03-31T00:39:57;13.27;;;7.40;;
26036;SDS011;13810;48.376;10.944;2023-03-31T00:40:28;12.05;;;6.47;;
26036;SDS011;13810;48.376;10.944;2023-03-31T00:40:59;13.75;;;7.30;;
26036;SDS011;13810;48.376;10.944;2023-03-31T00:41:30;12.32;;;7.47;;
26036;SDS011;13810;48.376;10.944;2023-03-31T00:42:01;13.35;;;6.75;;
26036;SDS011;13810;48.376;10.944;2023-03-31T00:42:32;9.35;;;6.53;;
26036;SDS011;13810;48.376;10.944;2023-03-31T00:43:08;13.23;;;6.47;;
26036;SDS011;13810;48.376;10.944;2023-03-31T00:45:42;11.20;;;5.78;;
26036;SDS011;13810;48.376;10.944;2023-03-31T00:46:16;7.53;;;5.13;;
26036;SDS011;13810;48.376;10.944;2023-03-31T00:46:57;9.63;;;5.28;;
26036;SDS011;13810;48.376;10.944;2023-03-31T00:47:31;14.10;;;6.35;;
26036;SDS011;13810;48.376;10.944;2023-03-31T00:48:04;12.00;;;6.65;;
26036;SDS011;13810;48.376;10.944;2023-03-31T00:48:50;17.13;;;6.60;;
26036;SDS011;13810;48.376;10.944;2023-03-31T00:50:01;11.18;;;5.63;;
26036;SDS011;13810;48.376;10.944;2023-03-31T00:50:28;12.77;;;5.75;;
26036;SDS011;13810;48.376;10.944;2023-03-31T00:51:05;13.35;;;5.97;;
26036;SDS011;13810;48.376;10.944;2023-03-31T00:51:36;9.10;;;6.00;;
26036;SDS011;13810;48.376;10.944;2023-03-31T00:52:09;12.48;;;6.30;;
26036;SDS011;13810;48.376;10.944;2023-03-31T00:52:49;10.35;;;5.78;;
26036;SDS011;13810;48.376;10.944;2023-03-31T00:53:25;10.25;;;5.35;;
26036;SDS011;13810;48.376;10.944;2023-03-31T00:54:00;12.52;;;5.90;;
26036;SDS011;13810;48.376;10.944;2023-03-31T00:54:34;9.73;;;5.70;;
26036;SDS011;13810;48.376;10.944;2023-03-31T00:55:11;15.13;;;6.00;;
26036;SDS011;13810;48.376;10.944;2023-03-31T00:55:48;15.00;;;5.65;;
26036;SDS011;13810;48.376;10.944;2023-03-31T00:56:22;8.10;;;5.20;;
26036;SDS011;13810;48.376;10.944;2023-03-31T00:56:54;10.68;;;5.57;;
26036;SDS011;13810;48.376;10.944;2023-03-31T00:57:27;10.80;;;5.60;;
26036;SDS011;13810;48.376;10.944;2023-03-31T00:58:01;16.08;;;6.47;;
26036;SDS011;13810;48.376;10.944;2023-03-31T00:58:35;14.43;;;5.90;;
26036;SDS011;13810;48.376;10.944;2023-03-31T00:59:12;13.73;;;6.10;;
26036;SDS011;13810;48.376;10.944;2023-03-31T00:59:51;14.20;;;5.85;;
26036;SDS011;13810;48.376;10.944;2023-03-31T01:00:25;11.75;;;5.57;;
26036;SDS011;13810;48.376;10.944;2023-03-31T01:00:57;12.32;;;6.35;;
26036;SDS011;13810;48.376;10.944;2023-03-31T01:01:29;10.15;;;5.68;;
26036;SDS011;13810;48.376;10.944;2023-03-31T01:02:00;10.63;;;5.72;;
26036;SDS011;13810;48.376;10.944;2023-03-31T01:02:31;13.65;;;5.53;;
26036;SDS011;13810;48.376;10.944;2023-03-31T01:03:04;8.38;;;6.07;;
26036;SDS011;13810;48.376;10.944;2023-03-31T01:03:36;13.27;;;6.35;;
26036;SDS011;13810;48.376;10.944;2023-03-31T01:04:07;11.32;;;5.78;;
26036;SDS011;13810;48.376;10.944;2023-03-31T01:04:43;13.07;;;5.90;;
26036;SDS011;13810;48.376;10.944;2023-03-31T01:05:19;11.77;;;6.00;;
26036;SDS011;13810;48.376;10.944;2023-03-31T01:06:11;10.93;;;5.18;;
26036;SDS011;13810;48.376;10.944;2023-03-31T01:06:51;10.77;;;4.97;;
26036;SDS011;13810;48.376;10.944;2023-03-31T01:07:31;11.65;;;6.38;;
26036;SDS011;13810;48.376;10.944;2023-03-31T01:08:07;11.77;;;6.78;;
26036;SDS011;13810;48.376;10.944;2023-03-31T01:08:38;9.30;;;5.65;;
26036;SDS011;13810;48.376;10.944;2023-03-31T01:09:12;11.15;;;5.78;;
26036;SDS011;13810;48.376;10.944;2023-03-31T01:09:45;13.77;;;6.20;;
26036;SDS011;13810;48.376;10.944;2023-03-31T01:10:17;9.32;;;6.45;;
26036;SDS011;13810;48.376;10.944;2023-03-31T01:10:53;12.88;;;6.03;;
26036;SDS011;13810;48.376;10.944;2023-03-31T01:11:28;10.20;;;6.07;;
26036;SDS011;13810;48.376;10.944;2023-03-31T01:12:01;10.57;;;6.03;;
26036;SDS011;13810;48.376;10.944;2023-03-31T01:12:33;15.30;;;6.13;;
26036;SDS011;13810;48.376;10.944;2023-03-31T01:13:08;9.00;;;5.65;;
26036;SDS011;13810;48.376;10.944;2023-03-31T01:13:40;11.60;;;5.50;;
26036;SDS011;13810;48.376;10.944;2023-03-31T01:14:12;11.13;;;5.88;;
26036;SDS011;13810;48.376;10.944;2023-03-31T01:14:43;12.88;;;6.13;;
26036;SDS011;13810;48.376;10.944;2023-03-31T01:15:14;11.00;;;6.35;;
26036;SDS011;13810;48.376;10.944;2023-03-31T01:15:45;12.52;;;6.43;;
26036;SDS011;13810;48.376;10.944;2023-03-31T01:16:16;9.13;;;6.30;;
26036;SDS011;13810;48.376;10.944;2023-03-31T01:16:47;12.23;;;5.50;;
26036;SDS011;13810;48.376;10.944;2023-03-31T01:17:18;12.88;;;6.10;;
26036;SDS011;13810;48.376;10.944;2023-03-31T01:17:51;12.60;;;5.90;;
26036;SDS011;13810;48.376;10.944;2023-03-31T01:18:24;11.70;;;6.15;;
26036;SDS011;13810;48.376;10.944;2023-03-31T01:18:56;11.05;;;6.15;;
26036;SDS011;13810;48.376;10.944;2023-03-31T01:20:11;11.52;;;5.70;;
26036;SDS011;13810;48.376;10.944;2023-03-31T01:23:01;10.63;;;5.47;;
26036;SDS011;13810;48.376;10.944;2023-03-31T01:28:37;14.55;;;7.13;;
26036;SDS011;13810;48.376;10.944;2023-03-31T01:30:24;10.73;;;6.80;;
26036;SDS011;13810;48.376;10.944;2023-03-31T01:31:59;14.85;;;7.93;;
26036;SDS011;13810;48.376;10.944;2023-03-31T01:36:49;15.73;;;7.90;;
26036;SDS011;13810;48.376;10.944;2023-03-31T01:42:00;18.98;;;10.00;;
26036;SDS011;13810;48.376;10.944;2023-03-31T01:44:32;19.08;;;8.48;;
26036;SDS011;13810;48.376;10.944;2023-03-31T01:45:59;14.38;;;8.25;;
26036;SDS011;13810;48.376;10.944;2023-03-31T01:46:43;15.55;;;8.07;;
26036;SDS011;13810;48.376;10.944;2023-03-31T01:47:44;15.68;;;7.47;;
26036;SDS011;13810;48.376;10.944;2023-03-31T01:49:12;15.48;;;7.20;;
26036;SDS011;13810;48.376;10.944;2023-03-31T01:51:01;9.43;;;6.28;;
26036;SDS011;13810;48.376;10.944;2023-03-31T01:51:49;11.02;;;7.38;;
26036;SDS011;13810;48.376;10.944;2023-03-31T01:54:27;12.98;;;5.85;;
26036;SDS011;13810;48.376;10.944;2023-03-31T01:55:14;19.27;;;6.68;;
26036;SDS011;13810;48.376;10.944;2023-03-31T01:56:31;10.73;;;6.35;;
26036;SDS011;13810;48.376;10.944;2023-03-31T01:57:17;10.25;;;6.38;;
26036;SDS011;13810;48.376;10.944;2023-03-31T01:58:13;16.10;;;6.38;;
26036;SDS011;13810;48.376;10.944;2023-03-31T01:58:54;13.57;;;6.15;;
26036;SDS011;13810;48.376;10.944;2023-03-31T01:59:32;15.82;;;6.45;;
26036;SDS011;13810;48.376;10.944;2023-03-31T02:00:11;14.38;;;6.80;;
26036;SDS011;13810;48.376;10.944;2023-03-31T02:01:05;18.13;;;6.90;;
26036;SDS011;13810;48.376;10.944;2023-03-31T02:01:53;11.85;;;7.03;;
26036;SDS011;13810;48.376;10.944;2023-03-31T02:02:34;10.57;;;6.18;;
26036;SDS011;13810;48.376;10.944;2023-03-31T02:03:13;13.80;;;7.00;;
26036;SDS011;13810;48.376;10.944;2023-03-31T02:03:52;16.45;;;7.05;;
26036;SDS011;13810;48.376;10.944;2023-03-31T02:04:28;17.70;;;6.43;;
26036;SDS011;13810;48.376;10.944;2023-03-31T02:05:08;16.25;;;7.10;;
26036;SDS011;13810;48.376;10.944;2023-03-31T02:05:45;9.18;;;6.20;;
26036;SDS011;13810;48.376;10.944;2023-03-31T02:06:22;11.18;;;6.97;;
26036;SDS011;13810;48.376;10.944;2023-03-31T02:07:06;11.93;;;6.35;;
26036;SDS011;13810;48.376;10.944;2023-03-31T02:07:42;14.48;;;6.70;;
26036;SDS011;13810;48.376;10.944;2023-03-31T02:08:20;15.32;;;7.05;;
26036;SDS011;13810;48.376;10.944;2023-03-31T02:08:56;12.10;;;7.38;;
26036;SDS011;13810;48.376;10.944;2023-03-31T02:09:32;13.45;;;6.85;;
26036;SDS011;13810;48.376;10.944;2023-03-31T02:10:07;11.00;;;7.45;;
26036;SDS011;13810;48.376;10.944;2023-03-31T02:10:41;16.13;;;6.72;;
26036;SDS011;13810;48.376;10.944;2023-03-31T02:11:14;10.57;;;7.25;;
26036;SDS011;13810;48.376;10.944;2023-03-31T02:11:46;11.57;;;6.90;;
26036;SDS011;13810;48.376;10.944;2023-03-31T02:12:18;13.18;;;7.68;;
26036;SDS011;13810;48.376;10.944;2023-03-31T02:12:52;11.05;;;6.30;;
26036;SDS011;13810;48.376;10.944;2023-03-31T02:13:26;13.80;;;7.22;;
26036;SDS011;13810;48.376;10.944;2023-03-31T02:13:58;12.50;;;7.95;;
26036;SDS011;13810;48.376;10.944;2023-03-31T02:14:31;13.52;;;6.53;;
26036;SDS011;13810;48.376;10.944;2023-03-31T02:15:05;13.95;;;7.93;;
26036;SDS011;13810;48.376;10.944;2023-03-31T02:15:40;16.05;;;7.03;;
26036;SDS011;13810;48.376;10.944;2023-03-31T02:16:15;12.32;;;7.47;;
26036;SDS011;13810;48.376;10.944;2023-03-31T02:16:54;22.60;;;7.53;;
26036;SDS011;13810;48.376;10.944;2023-03-31T02:17:27;15.75;;;7.28;;
26036;SDS011;13810;48.376;10.944;2023-03-31T02:18:02;15.77;;;7.60;;
26036;SDS011;13810;48.376;10.944;2023-03-31T02:18:40;14.85;;;8.05;;
26036;SDS011;13810;48.376;10.944;2023-03-31T02:19:13;12.50;;;6.70;;
26036;SDS011;13810;48.376;10.944;2023-03-31T02:19:48;13.13;;;7.18;;
26036;SDS011;13810;48.376;10.944;2023-03-31T02:20:21;9.02;;;6.60;;
26036;SDS011;13810;48.376;10.944;2023-03-31T02:20:53;11.40;;;6.53;;
26036;SDS011;13810;48.376;10.944;2023-03-31T02:21:33;13.57;;;6.68;;
26036;SDS011;13810;48.376;10.944;2023-03-31T02:22:07;16.73;;;7.07;;
26036;SDS011;13810;48.376;10.944;2023-03-31T02:22:39;14.73;;;6.35;;
26036;SDS011;13810;48.376;10.944;2023-03-31T02:23:15;9.85;;;5.47;;
26036;SDS011;13810;48.376;10.944;2023-03-31T02:23:49;9.50;;;5.45;;
26036;SDS011;13810;48.376;10.944;2023-03-31T02:24:22;11.50;;;6.00;;
26036;SDS011;13810;48.376;10.944;2023-03-31T02:24:55;8.32;;;5.05;;
26036;SDS011;13810;48.376;10.944;2023-03-31T02:25:31;11.38;;;5.53;;
26036;SDS011;13810;48.376;10.944;2023-03-31T02:26:07;9.98;;;5.55;;
26036;SDS011;13810;48.376;10.944;2023-03-31T02:26:44;12.25;;;5.90;;
26036;SDS011;13810;48.376;10.944;2023-03-31T02:27:26;9.85;;;6.25;;
26036;SDS011;13810;48.376;10.944;2023-03-31T02:28:05;8.88;;;5.60;;
26036;SDS011;13810;48.376;10.944;2023-03-31T02:28:40;16.38;;;5.63;;
26036;SDS011;13810;48.376;10.944;2023-03-31T02:29:10;10.57;;;6.47;;
26036;SDS011;13810;48.376;10.944;2023-03-31T02:29:41;12.48;;;6.15;;
26036;SDS011;13810;48.376;10.944;2023-03-31T02:30:12;8.18;;;6.40;;
26036;SDS011;13810;48.376;10.944;2023-03-31T02:32:39;10.60;;;6.00;;
26036;SDS011;13810;48.376;10.944;2023-03-31T02:33:11;8.70;;;5.80;;
26036;SDS011;13810;48.376;10.944;2023-03-31T02:33:42;10.68;;;5.63;;
26036;SDS011;13810;48.376;10.944;2023-03-31T02:34:12;9.55;;;6.05;;
26036;SDS011;13810;48.376;10.944;2023-03-31T02:34:43;10.27;;;6.18;;
26036;SDS011;13810;48.376;10.944;2023-03-31T02:35:15;16.70;;;6.75;;
26036;SDS011;13810;48.376;10.944;2023-03-31T02:35:48;9.95;;;6.70;;
26036;SDS011;13810;48.376;10.944;2023-03-31T02:36:18;13.55;;;6.82;;
26036;SDS011;13810;48.376;10.944;2023-03-31T02:36:50;11.98;;;6.65;;
26036;SDS011;13810;48.376;10.944;2023-03-31T02:37:21;16.15;;;6.75;;
26036;SDS011;13810;48.376;10.944;2023-03-31T02:37:52;12.68;;;7.50;;
26036;SDS011;13810;48.376;10.944;2023-03-31T02:38:22;9.65;;;6.35;;
26036;SDS011;13810;48.376;10.944;2023-03-31T02:39:15;10.00;;;6.90;;
26036;SDS011;13810;48.376;10.944;2023-03-31T02:39:49;10.57;;;6.18;;
26036;SDS011;13810;48.376;10.944;2023-03-31T02:40:23;13.50;;;6.30;;
26036;SDS011;13810;48.376;10.944;2023-03-31T02:40:56;12.00;;;6.50;;
26036;SDS011;13810;48.376;10.944;2023-03-31T02:41:27;9.48;;;6.35;;
26036;SDS011;13810;48.376;10.944;2023-03-31T02:41:58;9.55;;;5.90;;
26036;SDS011;13810;48.376;10.944;2023-03-31T02:42:31;14.05;;;6.78;;
26036;SDS011;13810;48.376;10.944;2023-03-31T02:43:02;10.23;;;6.18;;
26036;SDS011;13810;48.376;10.944;2023-03-31T02:43:36;12.38;;;6.40;;
26036;SDS011;13810;48.376;10.944;2023-03-31T02:44:07;11.18;;;6.40;;
26036;SDS011;13810;48.376;10.944;2023-03-31T02:44:39;11.48;;;5.93;;
26036;SDS011;13810;48.376;10.944;2023-03-31T02:45:55;10.30;;;5.28;;
26036;SDS011;13810;48.376;10.944;2023-03-31T02:46:20;13.40;;;5.55;;
26036;SDS011;13810;48.376;10.944;2023-03-31T02:46:51;12.43;;;5.43;;
26036;SDS011;13810;48.376;10.944;2023-03-31T02:47:23;11.13;;;5.07;;
26036;SDS011;13810;48.376;10.944;2023-03-31T02:47:53;13.18;;;5.50;;
26036;SDS011;13810;48.376;10.944;2023-03-31T02:48:28;11.45;;;5.22;;
26036;SDS011;13810;48.376;10.944;2023-03-31T02:49:04;15.70;;;5.22;;
26036;SDS011;13810;48.376;10.944;2023-03-31T02:49:39;13.48;;;5.25;;
26036;SDS011;13810;48.376;10.944;2023-03-31T02:50:13;12.85;;;5.47;;
26036;SDS011;13810;48.376;10.944;2023-03-31T02:53:05;12.88;;;5.38;;
26036;SDS011;13810;48.376;10.944;2023-03-31T02:56:24;13.52;;;5.93;;
26036;SDS011;13810;48.376;10.944;2023-03-31T02:58:40;13.57;;;5.57;;
26036;SDS011;13810;48.376;10.944;2023-03-31T02:59:20;9.35;;;5.57;;
26036;SDS011;13810;48.376;10.944;2023-03-31T03:01:34;9.68;;;4.75;;
26036;SDS011;13810;48.376;10.944;2023-03-31T03:02:31;10.25;;;5.55;;
26036;SDS011;13810;48.376;10.944;2023-03-31T03:05:11;16.15;;;5.88;;
26036;SDS011;13810;48.376;10.944;2023-03-31T03:05:47;10.93;;;5.13;;
26036;SDS011;13810;48.376;10.944;2023-03-31T03:07:15;10.27;;;5.07;;
26036;SDS011;13810;48.376;10.944;2023-03-31T03:10:26;10.57;;;5.80;;
26036;SDS011;13810;48.376;10.944;2023-03-31T03:12:48;8.85;;;5.07;;
26036;SDS011;13810;48.376;10.944;2023-03-31T03:13:51;12.73;;;5.57;;
26036;SDS011;13810;48.376;10.944;2023-03-31T03:16:00;9.25;;;5.50;;
26036;SDS011;13810;48.376;10.944;2023-03-31T03:16:40;8.57;;;5.47;;
26036;SDS011;13810;48.376;10.944;2023-03-31T03:17:17;12.38;;;5.35;;
26036;SDS011;13810;48.376;10.944;2023-03-31T03:17:55;10.52;;;5.70;;
26036;SDS011;13810;48.376;10.944;2023-03-31T03:18:26;12.73;;;5.90;;
26036;SDS011;13810;48.376;10.944;2023-03-31T03:18:58;11.05;;;5.75;;
26036;SDS011;13810;48.376;10.944;2023-03-31T03:19:31;13.27;;;6.28;;
26036;SDS011;13810;48.376;10.944;2023-03-31T03:20:02;13.15;;;5.97;;
26036;SDS011;13810;48.376;10.944;2023-03-31T03:20:37;14.20;;;5.72;;
26036;SDS011;13810;48.376;10.944;2023-03-31T03:21:09;6.10;;;5.13;;
26036;SDS011;13810;48.376;10.944;2023-03-31T03:21:40;12.77;;;5.35;;
26036;SDS011;13810;48.376;10.944;2023-03-31T03:22:11;10.27;;;4.82;;
26036;SDS011;13810;48.376;10.944;2023-03-31T03:22:41;15.43;;;6.05;;
26036;SDS011;13810;48.376;10.944;2023-03-31T03:23:12;12.35;;;5.53;;
26036;SDS011;13810;48.376;10.944;2023-03-31T03:23:43;9.32;;;5.78;;
26036;SDS011;13810;48.376;10.944;2023-03-31T03:24:14;17.27;;;5.60;;
26036;SDS011;13810;48.376;10.944;2023-03-31T03:24:46;10.52;;;5.07;;
26036;SDS011;13810;48.376;10.944;2023-03-31T03:25:16;9.55;;;5.88;;
26036;SDS011;13810;48.376;10.944;2023-03-31T03:25:49;10.18;;;4.95;;
26036;SDS011;13810;48.376;10.944;2023-03-31T03:26:20;10.68;;;4.53;;
26036;SDS011;13810;48.376;10.944;2023-03-31T03:26:52;9.55;;;5.43;;
26036;SDS011;13810;48.376;10.944;2023-03-31T03:27:23;14.02;;;5.35;;
26036;SDS011;13810;48.376;10.944;2023-03-31T03:27:53;15.07;;;5.28;;
26036;SDS011;13810;48.376;10.944;2023-03-31T03:28:24;9.80;;;5.15;;
26036;SDS011;13810;48.376;10.944;2023-03-31T03:28:55;10.55;;;6.15;;
26036;SDS011;13810;48.376;10.944;2023-03-31T03:29:26;14.50;;;6.25;;
26036;SDS011;13810;48.376;10.944;2023-03-31T03:29:57;12.43;;;5.50;;
26036;SDS011;13810;48.376;10.944;2023-03-31T03:30:28;9.40;;;4.93;;
26036;SDS011;13810;48.376;10.944;2023-03-31T03:30:58;10.05;;;4.35;;
26036;SDS011;13810;48.376;10.944;2023-03-31T03:31:29;10.88;;;5.30;;
26036;SDS011;13810;48.376;10.944;2023-03-31T03:32:02;13.10;;;4.88;;
26036;SDS011;13810;48.376;10.944;2023-03-31T03:32:33;10.00;;;5.38;;
26036;SDS011;13810;48.376;10.944;2023-03-31T03:33:04;10.90;;;5.53;;
26036;SDS011;13810;48.376;10.944;2023-03-31T03:33:35;9.20;;;5.40;;
26036;SDS011;13810;48.376;10.944;2023-03-31T03:34:06;8.07;;;5.63;;
26036;SDS011;13810;48.376;10.944;2023-03-31T03:34:38;14.95;;;5.80;;
26036;SDS011;13810;48.376;10.944;2023-03-31T03:35:09;12.18;;;5.47;;
26036;SDS011;13810;48.376;10.944;2023-03-31T03:35:40;13.95;;;5.53;;
26036;SDS011;13810;48.376;10.944;2023-03-31T03:36:10;14.02;;;6.90;;
26036;SDS011;13810;48.376;10.944;2023-03-31T03:36:42;16.63;;;6.03;;
26036;SDS011;13810;48.376;10.944;2023-03-31T03:37:12;12.02;;;6.07;;
26036;SDS011;13810;48.376;10.944;2023-03-31T03:37:43;9.85;;;5.43;;
26036;SDS011;13810;48.376;10.944;2023-03-31T03:38:13;10.30;;;5.45;;
26036;SDS011;13810;48.376;10.944;2023-03-31T03:38:44;8.10;;;5.60;;
26036;SDS011;13810;48.376;10.944;2023-03-31T03:39:15;10.93;;;5.00;;
26036;SDS011;13810;48.376;10.944;2023-03-31T03:39:45;12.23;;;5.05;;
26036;SDS011;13810;48.376;10.944;2023-03-31T03:40:16;10.10;;;5.53;;
26036;SDS011;13810;48.376;10.944;2023-03-31T03:40:51;14.45;;;5.07;;
26036;SDS011;13810;48.376;10.944;2023-03-31T03:41:23;10.43;;;5.32;;
26036;SDS011;13810;48.376;10.944;2023-03-31T03:41:54;13.25;;;4.65;;
26036;SDS011;13810;48.376;10.944;2023-03-31T03:42:24;9.88;;;4.55;;
26036;SDS011;13810;48.376;10.944;2023-03-31T03:42:55;10.52;;;4.88;;
26036;SDS011;13810;48.376;10.944;2023-03-31T03:43:25;8.52;;;5.13;;
26036;SDS011;13810;48.376;10.944;2023-03-31T03:43:56;13.60;;;5.85;;
26036;SDS011;13810;48.376;10.944;2023-03-31T03:44:27;10.00;;;5.20;;
26036;SDS011;13810;48.376;10.944;2023-03-31T03:44:57;15.48;;;5.65;;
26036;SDS011;13810;48.376;10.944;2023-03-31T03:45:28;8.10;;;5.20;;
26036;SDS011;13810;48.376;10.944;2023-03-31T03:45:59;8.55;;;4.95;;
26036;SDS011;13810;48.376;10.944;2023-03-31T03:46:30;14.80;;;5.82;;
26036;SDS011;13810;48.376;10.944;2023-03-31T03:47:00;10.45;;;4.90;;
26036;SDS011;13810;48.376;10.944;2023-03-31T03:47:31;11.35;;;5.28;;
26036;SDS011;13810;48.376;10.944;2023-03-31T03:48:02;14.27;;;5.25;;
26036;SDS011;13810;48.376;10.944;2023-03-31T03:48:33;9.32;;;4.75;;
26036;SDS011;13810;48.376;10.944;2023-03-31T03:49:03;12.07;;;4.80;;
26036;SDS011;13810;48.376;10.944;2023-03-31T03:49:34;13.18;;;6.13;;
26036;SDS011;13810;48.376;10.944;2023-03-31T03:50:05;7.93;;;5.18;;
26036;SDS011;13810;48.376;10.944;2023-03-31T03:50:36;8.57;;;5.13;;
26036;SDS011;13810;48.376;10.944;2023-03-31T03:51:07;11.70;;;5.70;;
26036;SDS011;13810;48.376;10.944;2023-03-31T03:51:38;8.43;;;5.30;;
26036;SDS011;13810;48.376;10.944;2023-03-31T03:52:09;13.23;;;4.97;;
26036;SDS011;13810;48.376;10.944;2023-03-31T03:52:39;10.02;;;5.20;;
26036;SDS011;13810;48.376;10.944;2023-03-31T03:53:10;8.10;;;5.30;;
26036;SDS011;13810;48.376;10.944;2023-03-31T03:53:41;11.98;;;5.35;;
26036;SDS011;13810;48.376;10.944;2023-03-31T03:54:12;10.55;;;4.78;;
26036;SDS011;13810;48.376;10.944;2023-03-31T03:54:42;8.77;;;4.90;;
26036;SDS011;13810;48.376;10.944;2023-03-31T03:55:13;10.98;;;4.72;;
26036;SDS011;13810;48.376;10.944;2023-03-31T03:55:44;12.60;;;4.85;;
26036;SDS011;13810;48.376;10.944;2023-03-31T03:56:17;13.48;;;5.32;;
26036;SDS011;13810;48.376;10.944;2023-03-31T03:56:48;9.45;;;5.00;;
26036;SDS011;13810;48.376;10.944;2023-03-31T03:57:19;10.98;;;5.10;;
26036;SDS011;13810;48.376;10.944;2023-03-31T03:57:50;15.48;;;5.78;;
26036;SDS011;13810;48.376;10.944;2023-03-31T03:58:20;9.98;;;5.38;;
26036;SDS011;13810;48.376;10.944;2023-03-31T03:58:51;12.90;;;5.32;;
26036;SDS011;13810;48.376;10.944;2023-03-31T03:59:22;7.57;;;5.05;;
26036;SDS011;13810;48.376;10.944;2023-03-31T03:59:52;11.88;;;5.25;;
26036;SDS011;13810;48.376;10.944;2023-03-31T04:00:23;15.55;;;6.00;;
26036;SDS011;13810;48.376;10.944;2023-03-31T04:00:54;11.00;;;5.88;;
26036;SDS011;13810;48.376;10.944;2023-03-31T04:01:26;12.82;;;5.35;;
26036;SDS011;13810;48.376;10.944;2023-03-31T04:01:56;18.00;;;6.07;;
26036;SDS011;13810;48.376;10.944;2023-03-31T04:02:27;13.90;;;5.65;;
26036;SDS011;13810;48.376;10.944;2023-03-31T04:02:58;19.05;;;5.85;;
26036;SDS011;13810;48.376;10.944;2023-03-31T04:03:28;11.52;;;5.53;;
26036;SDS011;13810;48.376;10.944;2023-03-31T04:04:00;10.75;;;5.70;;
26036;SDS011;13810;48.376;10.944;2023-03-31T04:04:30;8.07;;;5.22;;
26036;SDS011;13810;48.376;10.944;2023-03-31T04:05:01;19.15;;;6.97;;
26036;SDS011;13810;48.376;10.944;2023-03-31T04:05:31;12.57;;;6.00;;